createdAt,value
2022-08-22T00:03:03.567Z,20.71
2022-08-22T00:03:16.084Z,19.84
2022-08-22T00:06:17.380Z,19.90
2022-08-22T00:09:59.246Z,19.94
2022-08-22T00:12:40.289Z,19.93
2022-08-22T00:15:44.497Z,19.92
2022-08-22T00:19:20.277Z,19.91
2022-08-22T00:22:10.424Z,19.90
2022-08-22T00:25:25.431Z,19.87
2022-08-22T00:28:43.388Z,19.80
2022-08-22T00:31:50.577Z,19.74
2022-08-22T00:34:58.965Z,19.68
2022-08-22T00:38:29.265Z,19.63
2022-08-22T00:42:00.469Z,19.58
2022-08-22T00:45:11.295Z,19.55
2022-08-22T00:48:40.344Z,19.50
2022-08-22T00:51:56.554Z,19.46
2022-08-22T00:55:16.181Z,19.44
2022-08-22T00:58:58.210Z,19.42
2022-08-22T01:02:49.185Z,19.43
2022-08-22T01:06:14.144Z,19.44
2022-08-22T01:09:46.905Z,19.46
2022-08-22T01:13:02.502Z,19.48
2022-08-22T01:15:55.757Z,19.48
2022-08-22T01:19:11.932Z,19.46
2022-08-22T01:22:29.438Z,19.43
2022-08-22T01:25:37.363Z,19.40
2022-08-22T01:28:57.289Z,19.41
2022-08-22T01:32:15.941Z,19.42
2022-08-22T01:35:10.186Z,19.39
2022-08-22T01:38:44.138Z,19.37
2022-08-22T01:42:11.140Z,19.34
2022-08-22T01:45:01.499Z,19.31
2022-08-22T01:48:12.453Z,19.32
2022-08-22T01:51:30.833Z,19.35
2022-08-22T01:54:54.086Z,19.38
2022-08-22T01:58:45.554Z,19.35
2022-08-22T02:02:29.771Z,19.37
2022-08-22T02:05:57.522Z,19.44
2022-08-22T02:09:23.774Z,19.55
2022-08-22T02:12:41.090Z,19.57
2022-08-22T02:16:27.412Z,19.59
2022-08-22T02:19:54.966Z,19.64
2022-08-22T02:23:26.931Z,19.61
2022-08-22T02:27:02.581Z,19.63
2022-08-22T02:30:25.709Z,19.68
2022-08-22T02:34:09.299Z,19.70
2022-08-22T02:37:55.364Z,19.68
2022-08-22T02:42:05.732Z,19.63
2022-08-22T02:46:03.776Z,19.46
2022-08-22T02:49:52.391Z,19.24
2022-08-22T02:53:07.709Z,19.08
2022-08-22T02:56:18.324Z,19.05
2022-08-22T03:00:01.586Z,19.03
2022-08-22T03:03:20.176Z,18.97
2022-08-22T03:07:08.804Z,18.93
2022-08-22T03:10:17.605Z,18.86
2022-08-22T03:14:03.868Z,18.79
2022-08-22T03:17:07.663Z,18.79
2022-08-22T03:20:31.008Z,18.75
2022-08-22T03:23:34.983Z,18.80
2022-08-22T03:27:32.433Z,18.87
2022-08-22T03:30:47.927Z,18.92
2022-08-22T03:34:18.417Z,18.96
2022-08-22T03:37:26.996Z,19.00
2022-08-22T03:41:18.144Z,19.05
2022-08-22T03:44:11.785Z,19.11
2022-08-22T03:47:19.812Z,19.15
2022-08-22T03:51:02.697Z,19.18
2022-08-22T03:54:18.358Z,19.18
2022-08-22T03:58:28.084Z,19.11
2022-08-22T04:02:02.784Z,19.09
2022-08-22T04:05:35.038Z,19.16
2022-08-22T04:08:50.395Z,19.16
2022-08-22T04:12:36.975Z,19.13
2022-08-22T04:16:13.342Z,19.15
2022-08-22T04:19:17.105Z,19.13
2022-08-22T04:23:17.254Z,19.13
2022-08-22T04:26:52.343Z,19.14
2022-08-22T04:29:52.479Z,19.19
2022-08-22T04:33:10.477Z,19.25
2022-08-22T04:36:48.498Z,19.37
2022-08-22T04:40:53.008Z,19.48
2022-08-22T04:44:42.072Z,19.52
2022-08-22T04:47:59.867Z,19.56
2022-08-22T04:51:02.564Z,19.67
2022-08-22T04:54:39.201Z,19.73
2022-08-22T04:58:32.088Z,19.77
2022-08-22T05:02:18.952Z,19.77
2022-08-22T05:06:05.554Z,19.75
2022-08-22T05:09:17.590Z,19.69
2022-08-22T05:12:32.882Z,19.63
2022-08-22T05:16:09.193Z,19.55
2022-08-22T05:19:31.738Z,19.45
2022-08-22T05:22:35.345Z,19.36
2022-08-22T05:25:27.931Z,19.26
2022-08-22T05:28:56.347Z,19.14
2022-08-22T05:32:23.341Z,19.01
2022-08-22T05:35:11.796Z,18.96
2022-08-22T05:38:01.258Z,18.97
2022-08-22T05:41:50.481Z,19.04
2022-08-22T05:44:44.209Z,19.20
2022-08-22T05:48:18.080Z,19.33
2022-08-22T05:52:00.213Z,19.47
2022-08-22T05:55:27.376Z,19.59
2022-08-22T05:58:44.707Z,19.71
2022-08-22T06:02:17.863Z,19.80
2022-08-22T06:05:27.865Z,19.87
2022-08-22T06:08:07.947Z,19.96
2022-08-22T06:11:33.758Z,20.04
2022-08-22T06:14:42.175Z,20.18
2022-08-22T06:17:36.697Z,20.33
2022-08-22T06:20:59.853Z,20.40
2022-08-22T06:23:32.909Z,20.41
2022-08-22T06:26:30.748Z,20.47
2022-08-22T06:29:06.854Z,20.53
2022-08-22T06:32:59.132Z,20.59
2022-08-22T06:36:22.133Z,20.68
2022-08-22T06:39:43.704Z,20.76
2022-08-22T06:42:48.723Z,20.83
2022-08-22T06:46:01.946Z,20.85
2022-08-22T06:49:28.574Z,20.85
2022-08-22T06:52:52.702Z,20.87
2022-08-22T06:56:19.187Z,20.82
2022-08-22T06:59:32.444Z,20.70
2022-08-22T07:02:58.652Z,20.55
2022-08-22T07:06:25.804Z,20.50
2022-08-22T07:09:44.463Z,20.57
2022-08-22T07:13:15.350Z,20.65
2022-08-22T07:17:04.749Z,20.70
2022-08-22T07:20:48.455Z,20.73
2022-08-22T07:23:57.789Z,20.74
2022-08-22T07:27:09.088Z,20.78
2022-08-22T07:30:13.182Z,20.87
2022-08-22T07:33:42.385Z,20.99
2022-08-22T07:36:56.641Z,21.08
2022-08-22T07:40:12.698Z,21.24
2022-08-22T07:43:26.194Z,21.43
2022-08-22T07:46:39.220Z,21.57
2022-08-22T07:50:17.799Z,21.64
2022-08-22T07:53:11.923Z,21.81
2022-08-22T07:56:52.073Z,21.97
2022-08-22T08:00:11.757Z,22.05
2022-08-22T08:03:21.397Z,22.16
2022-08-22T08:06:16.092Z,22.27
2022-08-22T08:09:41.515Z,22.31
2022-08-22T08:12:37.458Z,22.35
2022-08-22T08:15:25.785Z,22.39
2022-08-22T08:18:53.966Z,22.39
2022-08-22T08:22:32.486Z,22.40
2022-08-22T08:25:40.049Z,22.43
2022-08-22T08:28:36.016Z,22.50
2022-08-22T08:32:19.756Z,22.57
2022-08-22T08:36:08.639Z,22.60
2022-08-22T08:39:39.580Z,22.58
2022-08-22T08:43:25.590Z,22.53
2022-08-22T08:46:26.232Z,22.49
2022-08-22T08:50:13.852Z,22.49
2022-08-22T08:53:56.764Z,22.46
2022-08-22T08:57:34.814Z,22.39
2022-08-22T09:00:49.082Z,22.35
2022-08-22T09:04:15.148Z,22.34
2022-08-22T09:07:39.416Z,22.35
2022-08-22T09:11:14.397Z,22.40
2022-08-22T09:14:46.093Z,22.56
2022-08-22T09:17:39.328Z,22.76
2022-08-22T09:20:53.981Z,22.88
2022-08-22T09:23:54.961Z,22.99
2022-08-22T09:30:46.176Z,23.12
2022-08-22T09:33:45.576Z,23.19
2022-08-22T09:37:15.011Z,23.25
2022-08-22T09:41:05.933Z,23.34
2022-08-22T09:45:04.792Z,23.49
2022-08-22T09:48:49.581Z,23.66
2022-08-22T09:51:33.436Z,23.81
2022-08-22T09:55:07.977Z,23.96
2022-08-22T09:58:58.081Z,24.07
2022-08-22T10:02:15.713Z,24.10
2022-08-22T10:05:41.157Z,24.10
2022-08-22T10:08:48.033Z,24.14
2022-08-22T10:12:24.771Z,24.22
2022-08-22T10:16:14.649Z,24.32
2022-08-22T10:19:57.180Z,24.34
2022-08-22T10:23:55.857Z,24.30
2022-08-22T10:27:57.457Z,24.28
2022-08-22T10:31:45.119Z,24.30
2022-08-22T10:35:34.047Z,24.40
2022-08-22T10:39:33.013Z,24.47
2022-08-22T10:43:28.596Z,24.55
2022-08-22T10:47:15.031Z,24.67
2022-08-22T10:51:03.213Z,24.81
2022-08-22T10:55:09.915Z,24.89
2022-08-22T10:58:47.468Z,24.88
2022-08-22T11:02:44.725Z,24.89
2022-08-22T11:06:38.727Z,24.99
2022-08-22T11:10:13.220Z,25.21
2022-08-22T11:13:46.859Z,25.40
2022-08-22T11:18:04.497Z,25.50
2022-08-22T11:22:03.828Z,25.63
2022-08-22T11:25:56.671Z,25.81
2022-08-22T11:29:37.368Z,25.89
2022-08-22T11:33:21.842Z,25.98
2022-08-22T11:37:11.527Z,26.11
2022-08-22T11:41:11.534Z,26.22
2022-08-22T11:45:01.813Z,26.28
2022-08-22T11:48:54.910Z,26.33
2022-08-22T11:53:01.668Z,26.32
2022-08-22T11:57:10.280Z,26.35
2022-08-22T12:01:02.547Z,26.46
2022-08-22T12:05:02.720Z,26.59
2022-08-22T12:08:55.771Z,26.70
2022-08-22T12:12:51.745Z,26.72
2022-08-22T12:16:21.878Z,26.79
2022-08-22T12:20:16.334Z,26.83
2022-08-22T12:24:11.367Z,26.93
2022-08-22T12:28:08.066Z,27.02
2022-08-22T12:32:10.447Z,27.10
2022-08-22T12:36:03.960Z,27.09
2022-08-22T12:39:53.629Z,27.08
2022-08-22T12:43:49.863Z,27.16
2022-08-22T12:47:46.373Z,27.11
2022-08-22T12:51:18.190Z,27.08
2022-08-22T12:55:16.280Z,27.13
2022-08-22T12:59:04.757Z,27.13
2022-08-22T13:02:58.352Z,27.08
2022-08-22T13:06:48.593Z,27.09
2022-08-22T13:10:36.516Z,27.17
2022-08-22T13:14:26.003Z,27.18
2022-08-22T13:18:28.658Z,27.18
2022-08-22T13:22:18.145Z,27.19
2022-08-22T13:26:08.491Z,27.19
2022-08-22T13:30:00.369Z,27.30
2022-08-22T13:33:50.970Z,27.44
2022-08-22T13:37:44.734Z,27.44
2022-08-22T13:41:32.158Z,27.43
2022-08-22T13:45:21.776Z,27.49
2022-08-22T13:49:24.168Z,27.52
2022-08-22T13:53:11.515Z,27.63
2022-08-22T13:57:01.565Z,27.77
2022-08-22T14:00:58.102Z,27.88
2022-08-22T14:04:46.501Z,27.83
2022-08-22T14:08:33.739Z,27.85
2022-08-22T14:12:23.547Z,27.83
2022-08-22T14:16:10.707Z,27.73
2022-08-22T14:20:11.012Z,27.70
2022-08-22T14:24:04.579Z,27.80
2022-08-22T14:27:55.260Z,27.91
2022-08-22T14:31:54.013Z,27.96
2022-08-22T14:35:40.952Z,27.98
2022-08-22T14:39:22.368Z,28.00
2022-08-22T14:43:09.990Z,28.04
2022-08-22T14:47:00.297Z,28.05
2022-08-22T14:50:52.936Z,28.10
2022-08-22T14:54:42.684Z,28.14
2022-08-22T14:58:32.710Z,28.12
2022-08-22T15:02:29.717Z,28.00
2022-08-22T15:06:21.868Z,27.85
2022-08-22T15:10:21.562Z,27.70
2022-08-22T15:14:08.525Z,27.59
2022-08-22T15:18:12.830Z,27.48
2022-08-22T15:22:05.180Z,27.37
2022-08-22T15:25:55.756Z,27.26
2022-08-22T15:29:43.831Z,27.16
2022-08-22T15:33:30.808Z,27.08
2022-08-22T15:37:24.016Z,26.95
2022-08-22T15:41:23.491Z,26.88
2022-08-22T15:45:13.140Z,26.83
2022-08-22T15:48:43.370Z,26.76
2022-08-22T15:52:42.083Z,26.67
2022-08-22T15:56:35.120Z,26.63
2022-08-22T16:00:34.646Z,26.56
2022-08-22T16:04:33.909Z,26.47
2022-08-22T16:08:33.159Z,26.41
2022-08-22T16:12:00.416Z,26.34
2022-08-22T16:15:49.356Z,26.29
2022-08-22T16:19:21.349Z,26.26
2022-08-22T16:22:34.528Z,26.25
2022-08-22T16:26:24.555Z,26.19
2022-08-22T16:30:00.348Z,26.06
2022-08-22T16:33:50.031Z,25.93
2022-08-22T16:37:18.101Z,25.86
2022-08-22T16:41:05.027Z,25.81
2022-08-22T16:44:36.841Z,25.74
2022-08-22T16:47:58.852Z,25.69
2022-08-22T16:51:48.199Z,25.63
2022-08-22T16:55:41.564Z,25.56
2022-08-22T16:59:43.700Z,25.48
2022-08-22T17:03:35.955Z,25.39
2022-08-22T17:07:09.110Z,25.27
2022-08-22T17:10:39.322Z,25.08
2022-08-22T17:14:50.782Z,24.95
2022-08-22T17:18:40.674Z,24.87
2022-08-22T17:22:15.712Z,24.80
2022-08-22T17:25:09.858Z,24.77
2022-08-22T17:27:39.919Z,24.75
2022-08-22T17:30:23.884Z,24.73
2022-08-22T17:34:01.248Z,24.70
2022-08-22T17:36:52.539Z,24.62
2022-08-22T17:39:30.003Z,24.53
2022-08-22T17:42:37.551Z,24.38
2022-08-22T17:45:27.102Z,24.24
2022-08-22T17:48:04.378Z,24.02
2022-08-22T17:51:14.070Z,23.88
2022-08-22T17:54:08.009Z,23.75
2022-08-22T17:57:06.202Z,23.68
2022-08-22T18:00:04.055Z,23.60
2022-08-22T18:02:38.806Z,23.53
2022-08-22T18:05:28.404Z,23.47
2022-08-22T18:09:13.349Z,23.35
2022-08-22T18:11:40.390Z,23.29
2022-08-22T18:14:19.967Z,23.21
2022-08-22T18:16:52.152Z,23.07
2022-08-22T18:19:30.663Z,23.00
2022-08-22T18:22:25.061Z,22.94
2022-08-22T18:25:27.686Z,22.83
2022-08-22T18:28:07.128Z,22.70
2022-08-22T18:30:50.263Z,22.62
2022-08-22T18:33:43.355Z,22.58
2022-08-22T18:36:31.998Z,22.58
2022-08-22T18:39:18.586Z,22.56
2022-08-22T18:41:52.839Z,22.54
2022-08-22T18:44:27.841Z,22.54
2022-08-22T18:47:01.551Z,22.61
2022-08-22T18:49:30.308Z,22.69
2022-08-22T18:52:22.820Z,22.66
2022-08-22T18:55:21.971Z,22.66
2022-08-22T18:58:31.207Z,22.66
2022-08-22T19:01:21.279Z,22.59
2022-08-22T19:04:21.192Z,22.51
2022-08-22T19:07:02.847Z,22.41
2022-08-22T19:10:03.519Z,22.40
2022-08-22T19:12:54.633Z,22.43
2022-08-22T19:15:43.233Z,22.42
2022-08-22T19:18:44.743Z,22.39
2022-08-22T19:21:38.727Z,22.32
2022-08-22T19:24:12.996Z,22.26
2022-08-22T19:26:48.049Z,22.20
2022-08-22T19:29:16.403Z,22.13
2022-08-22T19:31:48.333Z,22.06
2022-08-22T19:34:28.658Z,21.99
2022-08-22T19:37:31.034Z,21.91
2022-08-22T19:40:08.373Z,21.84
2022-08-22T19:42:41.779Z,21.75
2022-08-22T19:45:39.723Z,21.66
2022-08-22T19:48:14.237Z,21.59
2022-08-22T19:50:43.507Z,21.53
2022-08-22T19:53:48.101Z,21.46
2022-08-22T19:56:18.977Z,21.38
2022-08-22T19:58:55.694Z,21.36
2022-08-22T20:01:37.105Z,21.36
2022-08-22T20:04:40.795Z,21.37
2022-08-22T20:07:59.225Z,21.33
2022-08-22T20:10:50.219Z,21.25
2022-08-22T20:13:59.858Z,21.22
2022-08-22T20:17:05.842Z,21.17
2022-08-22T20:20:34.499Z,21.17
2022-08-22T20:23:31.515Z,21.19
2022-08-22T20:26:21.684Z,21.19
2022-08-22T20:28:51.792Z,21.22
2022-08-22T20:32:07.917Z,21.25
2022-08-22T20:35:55.480Z,21.23
2022-08-22T20:39:48.457Z,21.25
2022-08-22T20:43:46.359Z,21.30
2022-08-22T20:47:41.118Z,21.38
2022-08-22T20:51:29.817Z,21.43
2022-08-22T20:55:17.431Z,21.46
2022-08-22T20:59:04.898Z,21.43
2022-08-22T21:02:52.103Z,21.38
2022-08-22T21:06:48.470Z,21.30
2022-08-22T21:10:34.097Z,21.23
2022-08-22T21:14:21.634Z,21.14
2022-08-22T21:18:18.203Z,21.07
2022-08-22T21:22:11.800Z,21.03
2022-08-22T21:26:07.451Z,20.96
2022-08-22T21:29:34.977Z,20.88
2022-08-22T21:32:31.745Z,20.83
2022-08-22T21:35:18.830Z,20.76
2022-08-22T21:37:49.047Z,20.70
2022-08-22T21:41:21.746Z,20.63
2022-08-22T21:45:20.125Z,20.55
2022-08-22T21:48:54.835Z,20.48
2022-08-22T21:52:42.457Z,20.42
2022-08-22T21:56:29.042Z,20.37
2022-08-22T21:59:59.363Z,20.34
2022-08-22T22:03:10.962Z,20.31
2022-08-22T22:06:22.456Z,20.30
2022-08-22T22:08:59.753Z,20.29
2022-08-22T22:11:51.166Z,20.26
2022-08-22T22:14:44.246Z,20.24
2022-08-22T22:17:51.699Z,20.27
2022-08-22T22:20:52.422Z,20.31
2022-08-22T22:23:46.269Z,20.33
2022-08-22T22:26:45.535Z,20.36
2022-08-22T22:29:28.748Z,20.39
2022-08-22T22:32:24.949Z,20.42
2022-08-22T22:35:48.163Z,20.46
2022-08-22T22:39:16.968Z,20.47
2022-08-22T22:43:05.036Z,20.44
2022-08-22T22:46:19.801Z,20.40
2022-08-22T22:50:06.529Z,20.29
2022-08-22T22:53:53.204Z,20.18
2022-08-22T22:56:41.064Z,20.09
2022-08-22T22:59:33.600Z,20.03
2022-08-22T23:02:47.106Z,19.98
2022-08-22T23:05:35.408Z,19.95
2022-08-22T23:08:09.431Z,19.95
2022-08-22T23:11:38.528Z,19.96
2022-08-22T23:15:25.155Z,19.97
2022-08-22T23:18:33.208Z,19.95
2022-08-22T23:21:51.513Z,19.88
2022-08-22T23:25:20.181Z,19.78
2022-08-22T23:27:58.521Z,19.74
2022-08-22T23:30:55.401Z,19.71
2022-08-22T23:33:39.525Z,19.68
2022-08-22T23:36:18.831Z,19.63
2022-08-22T23:38:51.446Z,19.59
2022-08-22T23:41:23.220Z,19.54
2022-08-22T23:44:13.467Z,19.49
2022-08-22T23:47:03.626Z,19.46
2022-08-22T23:49:34.569Z,19.43
2022-08-22T23:52:06.124Z,19.41
2022-08-22T23:54:42.777Z,19.43
2022-08-22T23:57:12.087Z,19.42
2022-08-22T23:59:46.242Z,19.33
